createdAt,value
2022-11-27T00:02:22.849Z,4.28
2022-11-27T00:07:24.795Z,4.35
2022-11-27T00:12:26.838Z,3.50
2022-11-27T00:17:28.534Z,4.18
2022-11-27T00:22:30.261Z,3.65
2022-11-27T00:27:32.005Z,3.72
2022-11-27T00:32:34.012Z,3.90
2022-11-27T00:37:35.812Z,3.33
2022-11-27T00:42:37.799Z,3.28
2022-11-27T00:47:39.615Z,3.20
2022-11-27T00:52:41.366Z,3.33
2022-11-27T00:57:43.203Z,3.75
2022-11-27T01:02:45.163Z,3.22
2022-11-27T01:07:47.198Z,3.58
2022-11-27T01:12:50.240Z,3.10
2022-11-27T01:17:51.980Z,3.60
2022-11-27T01:22:53.776Z,3.63
2022-11-27T01:27:55.485Z,4.47
2022-11-27T01:32:57.212Z,3.38
2022-11-27T01:37:59.035Z,3.45
2022-11-27T01:43:00.761Z,3.72
2022-11-27T01:48:03.577Z,3.67
2022-11-27T01:53:15.861Z,3.65
2022-11-27T01:58:24.274Z,3.55
2022-11-27T02:03:26.221Z,3.10
2022-11-27T02:08:29.336Z,3.55
2022-11-27T02:13:37.280Z,3.13
2022-11-27T02:24:07.309Z,3.83
2022-11-27T02:29:14.210Z,3.25
2022-11-27T02:34:23.862Z,3.67
2022-11-27T02:39:41.861Z,3.63
2022-11-27T02:44:53.408Z,3.22
2022-11-27T02:49:57.281Z,2.85
2022-11-27T02:55:04.146Z,3.03
2022-11-27T03:00:06.954Z,3.17
2022-11-27T03:05:12.575Z,3.03
2022-11-27T03:10:20.825Z,3.45
2022-11-27T03:15:26.123Z,2.75
2022-11-27T03:20:32.650Z,2.63
2022-11-27T03:25:34.637Z,3.30
2022-11-27T03:30:36.515Z,2.53
2022-11-27T03:35:38.354Z,2.80
2022-11-27T03:41:16.584Z,2.92
2022-11-27T03:46:29.959Z,2.72
2022-11-27T03:51:54.549Z,3.13
2022-11-27T03:57:02.507Z,3.78
2022-11-27T04:07:06.399Z,2.55
2022-11-27T04:12:08.218Z,2.33
2022-11-27T04:17:10.001Z,3.10
2022-11-27T04:22:11.816Z,2.78
2022-11-27T04:27:13.666Z,2.90
2022-11-27T04:32:15.661Z,2.35
2022-11-27T04:37:17.505Z,2.40
2022-11-27T04:42:19.251Z,5.07
2022-11-27T04:47:21.675Z,25.80
2022-11-27T04:52:23.451Z,17.80
2022-11-27T04:57:25.379Z,21.35
2022-11-27T05:02:27.113Z,14.90
2022-11-27T05:07:28.967Z,12.68
2022-11-27T05:12:30.771Z,7.95
2022-11-27T05:17:32.484Z,3.38
2022-11-27T05:22:34.204Z,3.75
2022-11-27T05:27:35.961Z,3.50
2022-11-27T05:32:38.086Z,2.42
2022-11-27T05:37:40.020Z,2.10
2022-11-27T05:42:41.748Z,2.20
2022-11-27T05:47:43.507Z,2.63
2022-11-27T05:52:48.169Z,2.05
2022-11-27T05:57:49.868Z,2.13
2022-11-27T06:02:51.683Z,2.28
2022-11-27T06:07:53.618Z,1.70
2022-11-27T06:12:55.454Z,2.15
2022-11-27T06:17:57.533Z,2.08
2022-11-27T06:22:59.856Z,2.03
2022-11-27T06:28:01.656Z,1.77
2022-11-27T06:33:03.418Z,1.92
2022-11-27T06:38:05.195Z,2.00
2022-11-27T06:43:06.937Z,2.53
2022-11-27T06:48:08.741Z,1.95
2022-11-27T06:53:10.607Z,2.17
2022-11-27T06:58:12.517Z,2.33
2022-11-27T07:03:14.528Z,2.13
2022-11-27T07:08:16.285Z,1.90
2022-11-27T07:13:18.048Z,2.00
2022-11-27T07:18:19.866Z,2.42
2022-11-27T07:23:21.693Z,2.17
2022-11-27T07:28:23.473Z,2.40
2022-11-27T07:33:26.151Z,2.05
2022-11-27T07:38:28.037Z,1.85
2022-11-27T07:43:30.597Z,1.77
2022-11-27T07:48:32.994Z,1.80
2022-11-27T07:53:39.668Z,1.75
2022-11-27T07:58:41.634Z,2.08
2022-11-27T08:03:44.396Z,1.75
2022-11-27T08:08:46.301Z,1.60
2022-11-27T08:13:48.690Z,2.00
2022-11-27T08:18:50.548Z,2.72
2022-11-27T08:23:52.402Z,2.78
2022-11-27T08:28:54.852Z,3.30
2022-11-27T08:33:56.594Z,2.10
2022-11-27T08:38:58.403Z,2.70
2022-11-27T08:44:00.207Z,2.13
2022-11-27T08:49:01.943Z,4.20
2022-11-27T08:54:04.030Z,5.65
2022-11-27T08:59:05.860Z,4.60
2022-11-27T09:04:07.633Z,3.47
2022-11-27T09:09:10.235Z,2.28
2022-11-27T09:14:12.542Z,2.40
2022-11-27T09:19:14.306Z,1.80
2022-11-27T09:24:16.488Z,1.83
2022-11-27T09:29:18.433Z,2.65
2022-11-27T09:34:20.417Z,1.92
2022-11-27T09:39:22.877Z,2.67
2022-11-27T09:44:33.798Z,2.50
2022-11-27T09:49:41.874Z,2.33
2022-11-27T09:54:55.018Z,2.63
2022-11-27T10:00:02.851Z,2.72
2022-11-27T10:05:32.372Z,2.72
2022-11-27T10:10:56.243Z,3.33
2022-11-27T10:16:45.878Z,3.15
2022-11-27T10:22:19.660Z,3.03
2022-11-27T10:27:30.984Z,3.40
2022-11-27T10:38:06.951Z,3.25
2022-11-27T10:43:23.976Z,3.38
2022-11-27T10:48:27.759Z,2.90
2022-11-27T10:53:31.796Z,3.20
2022-11-27T10:58:50.800Z,3.90
2022-11-27T11:04:24.334Z,3.03
2022-11-27T11:09:35.183Z,4.00
2022-11-27T11:14:37.018Z,4.32
2022-11-27T11:19:39.154Z,4.45
2022-11-27T11:25:05.465Z,5.15
2022-11-27T11:30:08.605Z,5.18
2022-11-27T11:35:28.919Z,5.35
2022-11-27T11:40:34.617Z,5.03
2022-11-27T11:45:46.286Z,4.68
2022-11-27T11:50:55.838Z,4.63
2022-11-27T11:56:19.214Z,5.30
2022-11-27T12:01:56.680Z,3.65
2022-11-27T12:07:12.190Z,3.42
2022-11-27T12:12:21.514Z,3.28
2022-11-27T12:17:37.623Z,4.10
2022-11-27T12:22:49.402Z,3.20
2022-11-27T12:28:12.528Z,3.47
2022-11-27T12:33:59.163Z,3.20
2022-11-27T12:39:20.498Z,3.45
2022-11-27T12:44:37.877Z,2.50
2022-11-27T12:49:42.558Z,3.37
2022-11-27T12:55:12.354Z,2.30
2022-11-27T13:00:18.877Z,2.10
2022-11-27T13:05:26.285Z,2.38
2022-11-27T13:10:37.857Z,2.90
2022-11-27T13:15:48.990Z,2.67
2022-11-27T13:20:53.058Z,2.67
2022-11-27T13:25:56.912Z,2.90
2022-11-27T13:31:00.790Z,2.55
2022-11-27T13:36:04.576Z,2.45
2022-11-27T13:41:07.291Z,2.50
2022-11-27T13:46:28.532Z,3.10
2022-11-27T13:51:34.176Z,4.15
2022-11-27T13:56:36.543Z,2.45
2022-11-27T14:01:38.571Z,2.10
2022-11-27T14:06:42.786Z,2.40
2022-11-27T14:11:47.380Z,2.05
2022-11-27T14:17:00.025Z,2.20
2022-11-27T14:22:54.006Z,2.38
2022-11-27T14:28:04.609Z,2.00
2022-11-27T14:33:26.190Z,2.88
2022-11-27T14:38:33.728Z,1.70
2022-11-27T14:43:35.865Z,2.53
2022-11-27T14:48:43.762Z,2.08
2022-11-27T14:58:55.264Z,2.30
2022-11-27T15:03:59.827Z,2.53
2022-11-27T15:09:30.230Z,3.20
2022-11-27T15:14:25.694Z,2.95
2022-11-27T15:19:32.224Z,4.78
2022-11-27T15:24:37.954Z,3.97
2022-11-27T15:29:41.288Z,4.30
2022-11-27T15:34:43.332Z,3.33
2022-11-27T15:39:53.599Z,4.13
2022-11-27T15:44:57.563Z,4.07
2022-11-27T15:49:59.767Z,3.38
2022-11-27T15:55:01.583Z,2.95
2022-11-27T16:00:04.374Z,3.30
2022-11-27T16:05:13.335Z,2.63
2022-11-27T16:10:15.159Z,2.75
2022-11-27T16:15:17.284Z,3.08
2022-11-27T16:20:19.211Z,3.13
2022-11-27T16:25:21.253Z,2.92
2022-11-27T16:30:23.444Z,2.72
2022-11-27T16:35:25.901Z,2.70
2022-11-27T16:40:28.787Z,3.00
2022-11-27T16:45:30.746Z,2.40
2022-11-27T16:50:34.467Z,3.13
2022-11-27T16:55:36.658Z,2.83
2022-11-27T17:00:38.708Z,3.08
2022-11-27T17:05:40.548Z,3.42
2022-11-27T17:10:44.143Z,2.70
2022-11-27T17:15:45.994Z,2.95
2022-11-27T17:20:47.945Z,5.82
2022-11-27T17:25:49.779Z,4.82
2022-11-27T17:30:52.247Z,3.90
2022-11-27T17:35:54.759Z,4.95
2022-11-27T17:41:02.947Z,5.22
2022-11-27T17:46:16.449Z,4.45
2022-11-27T17:51:19.626Z,4.05
2022-11-27T17:56:22.192Z,3.83
2022-11-27T18:01:26.547Z,3.50
2022-11-27T18:06:28.494Z,4.47
2022-11-27T18:11:34.329Z,3.90
2022-11-27T18:16:38.571Z,5.07
2022-11-27T18:21:40.858Z,4.90
2022-11-27T18:27:07.382Z,4.97
2022-11-27T18:32:06.208Z,4.22
2022-11-27T18:37:08.375Z,4.65
2022-11-27T18:42:10.381Z,4.45
2022-11-27T18:47:14.988Z,4.60
2022-11-27T18:52:18.978Z,4.85
2022-11-27T18:57:21.613Z,4.72
2022-11-27T19:02:23.743Z,5.05
2022-11-27T19:07:27.952Z,6.13
2022-11-27T19:12:29.938Z,6.03
2022-11-27T19:17:32.526Z,5.68
2022-11-27T19:22:34.937Z,6.93
2022-11-27T19:27:37.087Z,6.88
2022-11-27T19:32:39.517Z,5.65
2022-11-27T19:37:41.682Z,5.90
2022-11-27T19:42:44.053Z,5.70
2022-11-27T19:47:46.891Z,5.60
2022-11-27T19:52:48.795Z,6.15
2022-11-27T19:57:51.226Z,5.50
2022-11-27T20:02:53.297Z,5.03
2022-11-27T20:07:55.374Z,5.35
2022-11-27T20:13:01.444Z,5.68
2022-11-27T20:18:04.266Z,5.85
2022-11-27T20:23:07.058Z,5.32
2022-11-27T20:28:09.625Z,6.10
2022-11-27T20:33:13.218Z,7.78
2022-11-27T20:38:15.499Z,6.82
2022-11-27T20:43:17.997Z,7.03
2022-11-27T20:48:19.976Z,7.57
2022-11-27T20:53:21.806Z,7.30
2022-11-27T20:58:24.172Z,6.60
2022-11-27T21:03:27.855Z,7.68
2022-11-27T21:08:30.161Z,7.13
2022-11-27T21:13:32.268Z,7.03
2022-11-27T21:18:34.264Z,7.68
2022-11-27T21:23:36.146Z,6.35
2022-11-27T21:28:39.157Z,6.18
2022-11-27T21:33:41.101Z,7.07
2022-11-27T21:38:43.441Z,6.43
2022-11-27T21:43:48.087Z,6.07
2022-11-27T21:48:52.200Z,5.18
2022-11-27T21:53:55.861Z,4.90
2022-11-27T21:58:57.666Z,4.63
2022-11-27T22:04:00.118Z,4.78
2022-11-27T22:09:02.148Z,4.75
2022-11-27T22:14:07.033Z,5.07
2022-11-27T22:19:10.327Z,3.53
2022-11-27T22:24:18.212Z,4.70
2022-11-27T22:29:21.656Z,4.20
2022-11-27T22:34:23.448Z,4.32
2022-11-27T22:39:25.505Z,3.92
2022-11-27T22:44:27.984Z,4.78
2022-11-27T22:49:30.407Z,4.57
2022-11-27T22:54:33.100Z,5.47
2022-11-27T22:59:35.344Z,4.25
2022-11-27T23:04:39.966Z,5.45
2022-11-27T23:09:42.968Z,5.72
2022-11-27T23:14:45.072Z,4.07
2022-11-27T23:19:47.096Z,4.93
2022-11-27T23:24:49.094Z,5.20
2022-11-27T23:29:51.006Z,5.22
2022-11-27T23:34:53.026Z,5.70
2022-11-27T23:39:54.812Z,5.03
2022-11-27T23:44:56.612Z,5.07
2022-11-27T23:49:58.451Z,4.57
2022-11-27T23:55:00.244Z,4.90
